sensor_id;sensor_type;location;lat;lon;timestamp;P1;durP1;ratioP1;P2;durP2;ratioP2
44068;SDS011;29738;51.234;5.484;2023-02-15T00:01:28;24.02;;;12.25;;
44068;SDS011;29738;51.234;5.484;2023-02-15T00:03:54;26.90;;;13.15;;
44068;SDS011;29738;51.234;5.484;2023-02-15T00:06:20;26.08;;;13.88;;
44068;SDS011;29738;51.234;5.484;2023-02-15T00:08:46;23.50;;;13.48;;
44068;SDS011;29738;51.234;5.484;2023-02-15T00:11:14;27.65;;;12.20;;
44068;SDS011;29738;51.234;5.484;2023-02-15T00:13:42;18.77;;;10.23;;
44068;SDS011;29738;51.234;5.484;2023-02-15T00:16:08;21.05;;;11.80;;
44068;SDS011;29738;51.234;5.484;2023-02-15T00:18:36;23.40;;;12.48;;
44068;SDS011;29738;51.234;5.484;2023-02-15T00:21:07;19.48;;;11.20;;
44068;SDS011;29738;51.234;5.484;2023-02-15T00:23:35;25.60;;;12.83;;
44068;SDS011;29738;51.234;5.484;2023-02-15T00:26:08;28.70;;;13.75;;
44068;SDS011;29738;51.234;5.484;2023-02-15T00:28:35;25.83;;;12.77;;
44068;SDS011;29738;51.234;5.484;2023-02-15T00:31:02;23.60;;;12.23;;
44068;SDS011;29738;51.234;5.484;2023-02-15T00:33:32;22.98;;;12.32;;
44068;SDS011;29738;51.234;5.484;2023-02-15T00:35:58;20.25;;;11.80;;
44068;SDS011;29738;51.234;5.484;2023-02-15T00:38:25;20.45;;;11.73;;
44068;SDS011;29738;51.234;5.484;2023-02-15T00:40:55;23.55;;;11.93;;
44068;SDS011;29738;51.234;5.484;2023-02-15T00:43:22;19.90;;;10.90;;
44068;SDS011;29738;51.234;5.484;2023-02-15T00:45:48;22.48;;;12.90;;
44068;SDS011;29738;51.234;5.484;2023-02-15T00:48:14;21.73;;;11.88;;
44068;SDS011;29738;51.234;5.484;2023-02-15T00:50:40;23.80;;;11.35;;
44068;SDS011;29738;51.234;5.484;2023-02-15T00:53:06;19.95;;;11.50;;
44068;SDS011;29738;51.234;5.484;2023-02-15T00:55:32;19.70;;;11.10;;
44068;SDS011;29738;51.234;5.484;2023-02-15T00:57:58;25.60;;;13.18;;
44068;SDS011;29738;51.234;5.484;2023-02-15T01:00:24;23.88;;;11.52;;
44068;SDS011;29738;51.234;5.484;2023-02-15T01:02:49;25.25;;;13.02;;
44068;SDS011;29738;51.234;5.484;2023-02-15T01:05:15;28.92;;;13.40;;
44068;SDS011;29738;51.234;5.484;2023-02-15T01:07:41;23.98;;;12.63;;
44068;SDS011;29738;51.234;5.484;2023-02-15T01:10:07;25.20;;;14.15;;
44068;SDS011;29738;51.234;5.484;2023-02-15T01:12:33;23.77;;;12.07;;
44068;SDS011;29738;51.234;5.484;2023-02-15T01:14:59;21.30;;;11.13;;
44068;SDS011;29738;51.234;5.484;2023-02-15T01:17:25;18.92;;;10.43;;
44068;SDS011;29738;51.234;5.484;2023-02-15T01:19:51;22.67;;;11.48;;
44068;SDS011;29738;51.234;5.484;2023-02-15T01:22:18;22.40;;;13.00;;
44068;SDS011;29738;51.234;5.484;2023-02-15T01:24:44;22.80;;;12.55;;
44068;SDS011;29738;51.234;5.484;2023-02-15T01:27:09;22.38;;;12.30;;
44068;SDS011;29738;51.234;5.484;2023-02-15T01:29:35;20.00;;;10.73;;
44068;SDS011;29738;51.234;5.484;2023-02-15T01:32:01;20.83;;;11.65;;
44068;SDS011;29738;51.234;5.484;2023-02-15T01:34:28;21.98;;;11.50;;
44068;SDS011;29738;51.234;5.484;2023-02-15T01:36:54;23.92;;;11.40;;
44068;SDS011;29738;51.234;5.484;2023-02-15T01:39:20;25.35;;;12.75;;
44068;SDS011;29738;51.234;5.484;2023-02-15T01:41:46;22.25;;;11.27;;
44068;SDS011;29738;51.234;5.484;2023-02-15T01:47:19;23.52;;;11.40;;
44068;SDS011;29738;51.234;5.484;2023-02-15T01:49:48;23.85;;;12.68;;
44068;SDS011;29738;51.234;5.484;2023-02-15T01:52:23;21.63;;;11.35;;
44068;SDS011;29738;51.234;5.484;2023-02-15T01:54:49;20.98;;;12.55;;
44068;SDS011;29738;51.234;5.484;2023-02-15T01:57:16;21.52;;;12.18;;
44068;SDS011;29738;51.234;5.484;2023-02-15T01:59:47;19.42;;;11.23;;
44068;SDS011;29738;51.234;5.484;2023-02-15T02:02:18;21.67;;;11.85;;
44068;SDS011;29738;51.234;5.484;2023-02-15T02:04:53;22.23;;;13.40;;
44068;SDS011;29738;51.234;5.484;2023-02-15T02:07:24;21.10;;;11.90;;
44068;SDS011;29738;51.234;5.484;2023-02-15T02:09:53;22.88;;;11.63;;
44068;SDS011;29738;51.234;5.484;2023-02-15T02:12:18;25.67;;;12.55;;
44068;SDS011;29738;51.234;5.484;2023-02-15T02:14:48;24.13;;;13.00;;
44068;SDS011;29738;51.234;5.484;2023-02-15T02:36:47;17.90;;;10.15;;
44068;SDS011;29738;51.234;5.484;2023-02-15T02:39:37;28.33;;;10.82;;
44068;SDS011;29738;51.234;5.484;2023-02-15T02:45:13;23.17;;;11.60;;
44068;SDS011;29738;51.234;5.484;2023-02-15T02:47:48;23.60;;;12.50;;
44068;SDS011;29738;51.234;5.484;2023-02-15T02:50:22;21.90;;;10.98;;
44068;SDS011;29738;51.234;5.484;2023-02-15T02:52:51;19.95;;;11.65;;
44068;SDS011;29738;51.234;5.484;2023-02-15T02:55:21;23.55;;;13.25;;
44068;SDS011;29738;51.234;5.484;2023-02-15T02:58:15;21.90;;;11.30;;
44068;SDS011;29738;51.234;5.484;2023-02-15T03:01:00;18.88;;;10.65;;
44068;SDS011;29738;51.234;5.484;2023-02-15T03:03:41;20.55;;;11.88;;
44068;SDS011;29738;51.234;5.484;2023-02-15T03:06:12;28.08;;;11.48;;
44068;SDS011;29738;51.234;5.484;2023-02-15T03:08:54;19.88;;;12.85;;
44068;SDS011;29738;51.234;5.484;2023-02-15T03:11:28;21.80;;;11.48;;
44068;SDS011;29738;51.234;5.484;2023-02-15T03:13:55;24.10;;;11.38;;
44068;SDS011;29738;51.234;5.484;2023-02-15T03:16:22;28.80;;;13.55;;
44068;SDS011;29738;51.234;5.484;2023-02-15T03:18:55;21.60;;;12.00;;
44068;SDS011;29738;51.234;5.484;2023-02-15T03:24:22;20.65;;;11.02;;
44068;SDS011;29738;51.234;5.484;2023-02-15T03:26:51;22.48;;;12.27;;
44068;SDS011;29738;51.234;5.484;2023-02-15T03:29:19;22.27;;;10.68;;
44068;SDS011;29738;51.234;5.484;2023-02-15T03:34:25;21.42;;;11.25;;
44068;SDS011;29738;51.234;5.484;2023-02-15T03:36:56;18.15;;;11.38;;
44068;SDS011;29738;51.234;5.484;2023-02-15T03:39:49;22.15;;;11.38;;
44068;SDS011;29738;51.234;5.484;2023-02-15T03:42:51;19.90;;;10.02;;
44068;SDS011;29738;51.234;5.484;2023-02-15T03:45:29;19.88;;;11.90;;
44068;SDS011;29738;51.234;5.484;2023-02-15T03:47:58;18.58;;;10.90;;
44068;SDS011;29738;51.234;5.484;2023-02-15T03:50:27;18.80;;;11.32;;
44068;SDS011;29738;51.234;5.484;2023-02-15T03:53:15;22.05;;;11.73;;
44068;SDS011;29738;51.234;5.484;2023-02-15T03:55:49;20.27;;;12.23;;
44068;SDS011;29738;51.234;5.484;2023-02-15T03:58:18;21.60;;;11.32;;
44068;SDS011;29738;51.234;5.484;2023-02-15T04:01:13;18.48;;;11.50;;
44068;SDS011;29738;51.234;5.484;2023-02-15T04:04:18;27.35;;;13.27;;
44068;SDS011;29738;51.234;5.484;2023-02-15T04:06:46;25.15;;;13.25;;
44068;SDS011;29738;51.234;5.484;2023-02-15T04:09:13;24.55;;;14.43;;
44068;SDS011;29738;51.234;5.484;2023-02-15T04:11:57;20.25;;;11.85;;
44068;SDS011;29738;51.234;5.484;2023-02-15T04:14:23;23.45;;;11.23;;
44068;SDS011;29738;51.234;5.484;2023-02-15T04:17:08;22.45;;;11.70;;
44068;SDS011;29738;51.234;5.484;2023-02-15T04:19:34;20.48;;;12.48;;
44068;SDS011;29738;51.234;5.484;2023-02-15T04:22:19;19.23;;;10.93;;
44068;SDS011;29738;51.234;5.484;2023-02-15T04:25:03;19.75;;;11.07;;
44068;SDS011;29738;51.234;5.484;2023-02-15T04:27:42;25.52;;;12.30;;
44068;SDS011;29738;51.234;5.484;2023-02-15T04:30:10;22.67;;;12.88;;
44068;SDS011;29738;51.234;5.484;2023-02-15T04:32:38;24.73;;;12.23;;
44068;SDS011;29738;51.234;5.484;2023-02-15T04:35:04;24.65;;;12.02;;
44068;SDS011;29738;51.234;5.484;2023-02-15T04:37:31;19.83;;;10.98;;
44068;SDS011;29738;51.234;5.484;2023-02-15T04:39:57;24.10;;;11.23;;
44068;SDS011;29738;51.234;5.484;2023-02-15T04:42:25;21.58;;;12.00;;
44068;SDS011;29738;51.234;5.484;2023-02-15T04:44:52;20.08;;;11.60;;
44068;SDS011;29738;51.234;5.484;2023-02-15T04:47:18;21.75;;;12.27;;
44068;SDS011;29738;51.234;5.484;2023-02-15T04:49:44;20.52;;;11.75;;
44068;SDS011;29738;51.234;5.484;2023-02-15T04:52:10;20.38;;;11.80;;
44068;SDS011;29738;51.234;5.484;2023-02-15T04:54:36;24.45;;;12.13;;
44068;SDS011;29738;51.234;5.484;2023-02-15T04:57:03;20.92;;;10.23;;
44068;SDS011;29738;51.234;5.484;2023-02-15T04:59:29;18.83;;;9.82;;
44068;SDS011;29738;51.234;5.484;2023-02-15T05:01:54;19.95;;;10.90;;
44068;SDS011;29738;51.234;5.484;2023-02-15T05:04:20;19.40;;;10.50;;
44068;SDS011;29738;51.234;5.484;2023-02-15T05:06:46;18.70;;;10.65;;
44068;SDS011;29738;51.234;5.484;2023-02-15T05:09:12;18.42;;;10.20;;
44068;SDS011;29738;51.234;5.484;2023-02-15T05:11:38;20.65;;;10.43;;
44068;SDS011;29738;51.234;5.484;2023-02-15T05:14:04;17.08;;;8.90;;
44068;SDS011;29738;51.234;5.484;2023-02-15T05:16:30;19.38;;;10.38;;
44068;SDS011;29738;51.234;5.484;2023-02-15T05:18:56;18.02;;;9.90;;
44068;SDS011;29738;51.234;5.484;2023-02-15T05:21:21;17.75;;;9.68;;
44068;SDS011;29738;51.234;5.484;2023-02-15T05:23:47;16.65;;;11.05;;
44068;SDS011;29738;51.234;5.484;2023-02-15T05:26:15;17.85;;;10.40;;
44068;SDS011;29738;51.234;5.484;2023-02-15T05:29:01;19.08;;;10.25;;
44068;SDS011;29738;51.234;5.484;2023-02-15T05:31:27;21.00;;;10.10;;
44068;SDS011;29738;51.234;5.484;2023-02-15T05:33:53;20.30;;;11.18;;
44068;SDS011;29738;51.234;5.484;2023-02-15T05:36:19;20.55;;;10.70;;
44068;SDS011;29738;51.234;5.484;2023-02-15T05:38:44;16.25;;;10.50;;
44068;SDS011;29738;51.234;5.484;2023-02-15T05:41:11;19.40;;;10.18;;
44068;SDS011;29738;51.234;5.484;2023-02-15T05:43:37;19.05;;;10.43;;
44068;SDS011;29738;51.234;5.484;2023-02-15T05:46:03;18.63;;;10.55;;
44068;SDS011;29738;51.234;5.484;2023-02-15T05:48:30;19.52;;;9.25;;
44068;SDS011;29738;51.234;5.484;2023-02-15T05:51:07;17.00;;;9.68;;
44068;SDS011;29738;51.234;5.484;2023-02-15T05:53:35;16.40;;;9.38;;
44068;SDS011;29738;51.234;5.484;2023-02-15T05:56:02;14.35;;;9.55;;
44068;SDS011;29738;51.234;5.484;2023-02-15T05:58:30;19.30;;;10.80;;
44068;SDS011;29738;51.234;5.484;2023-02-15T06:00:58;19.67;;;9.85;;
44068;SDS011;29738;51.234;5.484;2023-02-15T06:03:24;16.23;;;8.77;;
44068;SDS011;29738;51.234;5.484;2023-02-15T06:05:51;18.88;;;10.40;;
44068;SDS011;29738;51.234;5.484;2023-02-15T06:08:17;18.17;;;9.68;;
44068;SDS011;29738;51.234;5.484;2023-02-15T06:10:44;18.50;;;9.50;;
44068;SDS011;29738;51.234;5.484;2023-02-15T06:13:11;21.85;;;8.40;;
44068;SDS011;29738;51.234;5.484;2023-02-15T06:15:36;18.52;;;9.13;;
44068;SDS011;29738;51.234;5.484;2023-02-15T06:18:02;20.05;;;11.10;;
44068;SDS011;29738;51.234;5.484;2023-02-15T06:20:28;22.30;;;9.90;;
44068;SDS011;29738;51.234;5.484;2023-02-15T06:22:54;21.45;;;11.00;;
44068;SDS011;29738;51.234;5.484;2023-02-15T06:25:19;15.00;;;10.38;;
44068;SDS011;29738;51.234;5.484;2023-02-15T06:27:45;19.30;;;10.25;;
44068;SDS011;29738;51.234;5.484;2023-02-15T06:30:11;19.38;;;9.98;;
44068;SDS011;29738;51.234;5.484;2023-02-15T06:32:38;18.27;;;9.32;;
44068;SDS011;29738;51.234;5.484;2023-02-15T06:35:05;16.48;;;10.43;;
44068;SDS011;29738;51.234;5.484;2023-02-15T06:37:31;14.75;;;8.57;;
44068;SDS011;29738;51.234;5.484;2023-02-15T06:39:57;21.83;;;10.57;;
44068;SDS011;29738;51.234;5.484;2023-02-15T06:42:23;22.30;;;11.75;;
44068;SDS011;29738;51.234;5.484;2023-02-15T06:44:49;21.65;;;10.52;;
44068;SDS011;29738;51.234;5.484;2023-02-15T06:47:15;15.45;;;8.55;;
44068;SDS011;29738;51.234;5.484;2023-02-15T06:49:41;18.17;;;8.55;;
44068;SDS011;29738;51.234;5.484;2023-02-15T06:52:07;16.00;;;8.25;;
44068;SDS011;29738;51.234;5.484;2023-02-15T06:54:33;17.23;;;7.97;;
44068;SDS011;29738;51.234;5.484;2023-02-15T06:56:59;14.90;;;8.80;;
44068;SDS011;29738;51.234;5.484;2023-02-15T06:59:24;19.73;;;10.60;;
44068;SDS011;29738;51.234;5.484;2023-02-15T07:01:50;16.35;;;8.80;;
44068;SDS011;29738;51.234;5.484;2023-02-15T07:04:16;15.10;;;8.40;;
44068;SDS011;29738;51.234;5.484;2023-02-15T07:06:42;16.00;;;8.00;;
44068;SDS011;29738;51.234;5.484;2023-02-15T07:09:08;19.20;;;9.23;;
44068;SDS011;29738;51.234;5.484;2023-02-15T07:11:34;17.63;;;9.05;;
44068;SDS011;29738;51.234;5.484;2023-02-15T07:14:18;21.90;;;10.07;;
44068;SDS011;29738;51.234;5.484;2023-02-15T07:16:44;16.45;;;8.70;;
44068;SDS011;29738;51.234;5.484;2023-02-15T07:19:10;15.75;;;8.15;;
44068;SDS011;29738;51.234;5.484;2023-02-15T07:21:36;16.70;;;8.82;;
44068;SDS011;29738;51.234;5.484;2023-02-15T07:24:02;19.80;;;10.55;;
44068;SDS011;29738;51.234;5.484;2023-02-15T07:26:28;15.82;;;9.80;;
44068;SDS011;29738;51.234;5.484;2023-02-15T07:28:56;15.52;;;7.65;;
44068;SDS011;29738;51.234;5.484;2023-02-15T07:31:22;20.33;;;9.98;;
44068;SDS011;29738;51.234;5.484;2023-02-15T07:33:48;20.80;;;9.02;;
44068;SDS011;29738;51.234;5.484;2023-02-15T07:36:14;17.30;;;9.27;;
44068;SDS011;29738;51.234;5.484;2023-02-15T07:38:40;17.92;;;8.40;;
44068;SDS011;29738;51.234;5.484;2023-02-15T07:41:07;25.95;;;9.13;;
44068;SDS011;29738;51.234;5.484;2023-02-15T07:43:36;17.45;;;8.95;;
44068;SDS011;29738;51.234;5.484;2023-02-15T07:46:05;19.35;;;9.57;;
44068;SDS011;29738;51.234;5.484;2023-02-15T07:48:33;18.30;;;10.38;;
44068;SDS011;29738;51.234;5.484;2023-02-15T07:51:00;17.75;;;9.48;;
44068;SDS011;29738;51.234;5.484;2023-02-15T07:53:26;23.38;;;11.15;;
44068;SDS011;29738;51.234;5.484;2023-02-15T07:55:53;17.75;;;10.00;;
44068;SDS011;29738;51.234;5.484;2023-02-15T07:58:19;19.45;;;10.18;;
44068;SDS011;29738;51.234;5.484;2023-02-15T08:00:45;20.95;;;10.85;;
44068;SDS011;29738;51.234;5.484;2023-02-15T08:03:26;24.08;;;11.10;;
44068;SDS011;29738;51.234;5.484;2023-02-15T08:05:57;22.20;;;11.05;;
44068;SDS011;29738;51.234;5.484;2023-02-15T08:08:24;20.13;;;9.95;;
44068;SDS011;29738;51.234;5.484;2023-02-15T08:14:03;26.52;;;11.82;;
44068;SDS011;29738;51.234;5.484;2023-02-15T08:16:31;20.13;;;11.95;;
44068;SDS011;29738;51.234;5.484;2023-02-15T08:19:08;46.42;;;21.25;;
44068;SDS011;29738;51.234;5.484;2023-02-15T08:21:41;23.65;;;12.80;;
44068;SDS011;29738;51.234;5.484;2023-02-15T08:24:09;31.85;;;16.80;;
44068;SDS011;29738;51.234;5.484;2023-02-15T08:26:36;22.67;;;13.30;;
44068;SDS011;29738;51.234;5.484;2023-02-15T08:29:03;23.55;;;11.85;;
44068;SDS011;29738;51.234;5.484;2023-02-15T08:31:31;29.52;;;13.98;;
44068;SDS011;29738;51.234;5.484;2023-02-15T08:33:58;29.17;;;15.23;;
44068;SDS011;29738;51.234;5.484;2023-02-15T08:36:25;34.10;;;14.32;;
44068;SDS011;29738;51.234;5.484;2023-02-15T08:38:53;29.60;;;14.75;;
44068;SDS011;29738;51.234;5.484;2023-02-15T08:41:20;31.73;;;17.13;;
44068;SDS011;29738;51.234;5.484;2023-02-15T08:43:49;45.78;;;21.02;;
44068;SDS011;29738;51.234;5.484;2023-02-15T08:46:17;206.25;;;68.40;;
44068;SDS011;29738;51.234;5.484;2023-02-15T08:48:44;61.45;;;27.17;;
44068;SDS011;29738;51.234;5.484;2023-02-15T08:51:14;187.02;;;63.35;;
44068;SDS011;29738;51.234;5.484;2023-02-15T08:53:45;97.45;;;43.83;;
44068;SDS011;29738;51.234;5.484;2023-02-15T08:56:17;115.60;;;43.05;;
44068;SDS011;29738;51.234;5.484;2023-02-15T08:58:44;124.80;;;46.70;;
44068;SDS011;29738;51.234;5.484;2023-02-15T09:01:11;106.10;;;45.85;;
44068;SDS011;29738;51.234;5.484;2023-02-15T09:03:38;66.45;;;31.35;;
44068;SDS011;29738;51.234;5.484;2023-02-15T09:06:05;70.65;;;34.30;;
44068;SDS011;29738;51.234;5.484;2023-02-15T09:08:31;106.13;;;46.30;;
44068;SDS011;29738;51.234;5.484;2023-02-15T09:16:18;49.80;;;24.40;;
44068;SDS011;29738;51.234;5.484;2023-02-15T09:18:45;42.65;;;21.60;;
44068;SDS011;29738;51.234;5.484;2023-02-15T09:21:13;42.55;;;23.33;;
44068;SDS011;29738;51.234;5.484;2023-02-15T09:23:41;38.58;;;20.92;;
44068;SDS011;29738;51.234;5.484;2023-02-15T09:26:11;38.35;;;20.98;;
44068;SDS011;29738;51.234;5.484;2023-02-15T09:28:39;36.17;;;20.77;;
44068;SDS011;29738;51.234;5.484;2023-02-15T09:31:07;39.72;;;19.40;;
44068;SDS011;29738;51.234;5.484;2023-02-15T09:33:39;36.75;;;21.08;;
44068;SDS011;29738;51.234;5.484;2023-02-15T09:36:06;40.90;;;20.77;;
44068;SDS011;29738;51.234;5.484;2023-02-15T09:38:43;39.75;;;19.20;;
44068;SDS011;29738;51.234;5.484;2023-02-15T09:41:23;38.20;;;20.02;;
44068;SDS011;29738;51.234;5.484;2023-02-15T09:50:21;35.33;;;18.98;;
44068;SDS011;29738;51.234;5.484;2023-02-15T10:07:28;34.28;;;17.33;;
44068;SDS011;29738;51.234;5.484;2023-02-15T10:26:26;21.98;;;12.65;;
44068;SDS011;29738;51.234;5.484;2023-02-15T10:29:02;27.27;;;14.25;;
44068;SDS011;29738;51.234;5.484;2023-02-15T10:36:46;22.52;;;12.40;;
44068;SDS011;29738;51.234;5.484;2023-02-15T10:39:29;26.27;;;13.32;;
44068;SDS011;29738;51.234;5.484;2023-02-15T10:42:16;26.05;;;12.60;;
44068;SDS011;29738;51.234;5.484;2023-02-15T10:55:47;21.83;;;12.52;;
44068;SDS011;29738;51.234;5.484;2023-02-15T10:58:34;22.05;;;10.75;;
44068;SDS011;29738;51.234;5.484;2023-02-15T11:01:22;21.00;;;12.52;;
44068;SDS011;29738;51.234;5.484;2023-02-15T11:07:12;21.55;;;11.35;;
44068;SDS011;29738;51.234;5.484;2023-02-15T11:09:47;19.02;;;11.85;;
44068;SDS011;29738;51.234;5.484;2023-02-15T11:12:22;23.90;;;11.07;;
44068;SDS011;29738;51.234;5.484;2023-02-15T11:14:57;20.85;;;11.50;;
44068;SDS011;29738;51.234;5.484;2023-02-15T11:17:50;26.52;;;11.60;;
44068;SDS011;29738;51.234;5.484;2023-02-15T11:22:53;23.88;;;10.10;;
44068;SDS011;29738;51.234;5.484;2023-02-15T11:25:40;20.73;;;10.20;;
44068;SDS011;29738;51.234;5.484;2023-02-15T11:28:06;24.88;;;11.95;;
44068;SDS011;29738;51.234;5.484;2023-02-15T11:30:51;20.70;;;10.32;;
44068;SDS011;29738;51.234;5.484;2023-02-15T11:33:21;19.02;;;10.07;;
44068;SDS011;29738;51.234;5.484;2023-02-15T11:35:56;25.63;;;13.88;;
44068;SDS011;29738;51.234;5.484;2023-02-15T11:38:29;37.95;;;17.00;;
44068;SDS011;29738;51.234;5.484;2023-02-15T11:41:32;18.08;;;10.25;;
44068;SDS011;29738;51.234;5.484;2023-02-15T11:46:31;20.15;;;9.68;;
44068;SDS011;29738;51.234;5.484;2023-02-15T11:48:57;20.50;;;9.32;;
44068;SDS011;29738;51.234;5.484;2023-02-15T11:51:23;22.20;;;10.15;;
44068;SDS011;29738;51.234;5.484;2023-02-15T11:53:52;20.60;;;9.88;;
44068;SDS011;29738;51.234;5.484;2023-02-15T11:56:20;18.85;;;9.57;;
44068;SDS011;29738;51.234;5.484;2023-02-15T12:01:44;19.75;;;9.40;;
44068;SDS011;29738;51.234;5.484;2023-02-15T12:04:23;21.35;;;10.30;;
44068;SDS011;29738;51.234;5.484;2023-02-15T12:06:58;20.88;;;10.30;;
44068;SDS011;29738;51.234;5.484;2023-02-15T12:09:33;18.40;;;11.00;;
44068;SDS011;29738;51.234;5.484;2023-02-15T12:12:21;31.95;;;15.48;;
44068;SDS011;29738;51.234;5.484;2023-02-15T12:14:59;23.45;;;11.52;;
44068;SDS011;29738;51.234;5.484;2023-02-15T12:17:32;22.70;;;10.85;;
44068;SDS011;29738;51.234;5.484;2023-02-15T12:20:03;21.05;;;10.38;;
44068;SDS011;29738;51.234;5.484;2023-02-15T12:22:54;27.00;;;13.38;;
44068;SDS011;29738;51.234;5.484;2023-02-15T12:25:29;23.13;;;12.15;;
44068;SDS011;29738;51.234;5.484;2023-02-15T12:28:03;18.90;;;11.30;;
44068;SDS011;29738;51.234;5.484;2023-02-15T12:30:41;23.70;;;10.95;;
44068;SDS011;29738;51.234;5.484;2023-02-15T12:36:10;23.42;;;11.82;;
44068;SDS011;29738;51.234;5.484;2023-02-15T12:39:09;21.00;;;11.20;;
44068;SDS011;29738;51.234;5.484;2023-02-15T12:47:04;22.27;;;12.27;;
44068;SDS011;29738;51.234;5.484;2023-02-15T12:54:43;22.00;;;11.05;;
44068;SDS011;29738;51.234;5.484;2023-02-15T12:59:55;24.48;;;11.15;;
44068;SDS011;29738;51.234;5.484;2023-02-15T13:02:29;21.55;;;11.50;;
44068;SDS011;29738;51.234;5.484;2023-02-15T13:07:38;25.77;;;11.57;;
44068;SDS011;29738;51.234;5.484;2023-02-15T13:10:23;19.98;;;10.15;;
44068;SDS011;29738;51.234;5.484;2023-02-15T13:13:18;21.65;;;11.45;;
44068;SDS011;29738;51.234;5.484;2023-02-15T13:15:48;22.58;;;11.30;;
44068;SDS011;29738;51.234;5.484;2023-02-15T13:18:17;22.65;;;11.15;;
44068;SDS011;29738;51.234;5.484;2023-02-15T13:20:54;26.38;;;11.65;;
44068;SDS011;29738;51.234;5.484;2023-02-15T13:23:27;24.83;;;11.35;;
44068;SDS011;29738;51.234;5.484;2023-02-15T13:25:58;22.85;;;11.02;;
44068;SDS011;29738;51.234;5.484;2023-02-15T13:29:04;24.67;;;11.20;;
44068;SDS011;29738;51.234;5.484;2023-02-15T13:31:24;23.15;;;11.68;;
44068;SDS011;29738;51.234;5.484;2023-02-15T13:33:53;21.00;;;11.15;;
44068;SDS011;29738;51.234;5.484;2023-02-15T13:36:26;22.75;;;11.88;;
44068;SDS011;29738;51.234;5.484;2023-02-15T13:41:50;21.70;;;10.35;;
44068;SDS011;29738;51.234;5.484;2023-02-15T13:49:51;42.42;;;25.27;;
44068;SDS011;29738;51.234;5.484;2023-02-15T13:52:29;41.13;;;25.77;;
44068;SDS011;29738;51.234;5.484;2023-02-15T13:55:21;27.42;;;15.00;;
44068;SDS011;29738;51.234;5.484;2023-02-15T14:00:51;24.58;;;11.73;;
44068;SDS011;29738;51.234;5.484;2023-02-15T14:09:03;27.30;;;12.02;;
44068;SDS011;29738;51.234;5.484;2023-02-15T14:11:41;22.23;;;11.55;;
44068;SDS011;29738;51.234;5.484;2023-02-15T14:17:30;20.88;;;10.10;;
44068;SDS011;29738;51.234;5.484;2023-02-15T14:23:42;23.00;;;11.02;;
44068;SDS011;29738;51.234;5.484;2023-02-15T14:26:15;22.85;;;11.20;;
44068;SDS011;29738;51.234;5.484;2023-02-15T14:32:10;18.50;;;10.65;;
44068;SDS011;29738;51.234;5.484;2023-02-15T14:34:57;23.73;;;11.80;;
44068;SDS011;29738;51.234;5.484;2023-02-15T14:37:33;19.40;;;10.13;;
44068;SDS011;29738;51.234;5.484;2023-02-15T14:40:16;24.48;;;11.82;;
44068;SDS011;29738;51.234;5.484;2023-02-15T14:52:14;19.08;;;10.27;;
44068;SDS011;29738;51.234;5.484;2023-02-15T15:02:27;25.02;;;13.25;;
44068;SDS011;29738;51.234;5.484;2023-02-15T15:05:21;23.52;;;12.40;;
44068;SDS011;29738;51.234;5.484;2023-02-15T15:07:57;28.65;;;13.25;;
44068;SDS011;29738;51.234;5.484;2023-02-15T15:13:00;35.80;;;21.75;;
44068;SDS011;29738;51.234;5.484;2023-02-15T15:15:55;23.17;;;14.02;;
44068;SDS011;29738;51.234;5.484;2023-02-15T15:22:02;26.30;;;14.18;;
44068;SDS011;29738;51.234;5.484;2023-02-15T15:24:59;25.35;;;14.80;;
44068;SDS011;29738;51.234;5.484;2023-02-15T15:35:35;32.55;;;14.50;;
44068;SDS011;29738;51.234;5.484;2023-02-15T15:38:28;29.92;;;16.05;;
44068;SDS011;29738;51.234;5.484;2023-02-15T15:44:00;30.30;;;15.38;;
44068;SDS011;29738;51.234;5.484;2023-02-15T15:49:10;26.20;;;13.35;;
44068;SDS011;29738;51.234;5.484;2023-02-15T15:51:41;34.25;;;19.10;;
44068;SDS011;29738;51.234;5.484;2023-02-15T15:54:12;32.17;;;18.83;;
44068;SDS011;29738;51.234;5.484;2023-02-15T15:56:43;33.15;;;17.60;;
44068;SDS011;29738;51.234;5.484;2023-02-15T15:59:14;33.60;;;18.27;;
44068;SDS011;29738;51.234;5.484;2023-02-15T16:01:53;30.25;;;17.88;;
44068;SDS011;29738;51.234;5.484;2023-02-15T16:12:25;28.42;;;15.25;;
44068;SDS011;29738;51.234;5.484;2023-02-15T16:14:53;23.77;;;14.68;;
44068;SDS011;29738;51.234;5.484;2023-02-15T16:17:21;30.58;;;15.38;;
44068;SDS011;29738;51.234;5.484;2023-02-15T16:19:49;27.83;;;16.13;;
44068;SDS011;29738;51.234;5.484;2023-02-15T16:22:21;33.33;;;16.15;;
44068;SDS011;29738;51.234;5.484;2023-02-15T16:32:54;33.90;;;17.58;;
44068;SDS011;29738;51.234;5.484;2023-02-15T16:35:31;34.13;;;19.17;;
44068;SDS011;29738;51.234;5.484;2023-02-15T16:37:57;30.50;;;17.30;;
44068;SDS011;29738;51.234;5.484;2023-02-15T16:42:54;29.67;;;17.38;;
44068;SDS011;29738;51.234;5.484;2023-02-15T16:45:26;30.17;;;17.02;;
44068;SDS011;29738;51.234;5.484;2023-02-15T16:47:57;37.83;;;21.42;;
44068;SDS011;29738;51.234;5.484;2023-02-15T16:50:29;34.85;;;20.00;;
44068;SDS011;29738;51.234;5.484;2023-02-15T16:52:59;44.80;;;22.85;;
44068;SDS011;29738;51.234;5.484;2023-02-15T16:55:37;33.33;;;19.08;;
44068;SDS011;29738;51.234;5.484;2023-02-15T16:58:06;35.17;;;19.20;;
44068;SDS011;29738;51.234;5.484;2023-02-15T17:00:38;33.90;;;19.88;;
44068;SDS011;29738;51.234;5.484;2023-02-15T17:08:24;30.67;;;17.20;;
44068;SDS011;29738;51.234;5.484;2023-02-15T17:13:38;38.40;;;19.63;;
44068;SDS011;29738;51.234;5.484;2023-02-15T17:18:48;36.47;;;21.38;;
44068;SDS011;29738;51.234;5.484;2023-02-15T17:21:17;43.22;;;24.77;;
44068;SDS011;29738;51.234;5.484;2023-02-15T17:23:51;45.10;;;24.73;;
44068;SDS011;29738;51.234;5.484;2023-02-15T17:26:26;50.08;;;27.05;;
44068;SDS011;29738;51.234;5.484;2023-02-15T17:28:55;43.95;;;25.17;;
44068;SDS011;29738;51.234;5.484;2023-02-15T17:34:02;32.72;;;17.63;;
44068;SDS011;29738;51.234;5.484;2023-02-15T17:36:28;30.05;;;18.08;;
44068;SDS011;29738;51.234;5.484;2023-02-15T17:41:43;40.28;;;22.60;;
44068;SDS011;29738;51.234;5.484;2023-02-15T17:44:09;37.38;;;21.30;;
44068;SDS011;29738;51.234;5.484;2023-02-15T17:46:39;38.38;;;19.98;;
44068;SDS011;29738;51.234;5.484;2023-02-15T17:49:05;44.35;;;23.52;;
44068;SDS011;29738;51.234;5.484;2023-02-15T17:51:32;55.30;;;27.75;;
44068;SDS011;29738;51.234;5.484;2023-02-15T17:54:00;52.72;;;26.48;;
44068;SDS011;29738;51.234;5.484;2023-02-15T17:56:45;49.08;;;24.27;;
44068;SDS011;29738;51.234;5.484;2023-02-15T17:59:11;50.40;;;25.95;;
44068;SDS011;29738;51.234;5.484;2023-02-15T18:01:42;46.42;;;25.15;;
44068;SDS011;29738;51.234;5.484;2023-02-15T18:04:30;52.67;;;27.02;;
44068;SDS011;29738;51.234;5.484;2023-02-15T18:07:17;54.90;;;27.83;;
44068;SDS011;29738;51.234;5.484;2023-02-15T18:10:12;52.00;;;26.77;;
44068;SDS011;29738;51.234;5.484;2023-02-15T18:13:00;42.67;;;23.35;;
44068;SDS011;29738;51.234;5.484;2023-02-15T18:15:26;80.95;;;35.85;;
44068;SDS011;29738;51.234;5.484;2023-02-15T18:17:52;79.10;;;37.70;;
44068;SDS011;29738;51.234;5.484;2023-02-15T18:20:20;58.45;;;29.00;;
44068;SDS011;29738;51.234;5.484;2023-02-15T18:22:48;48.33;;;25.02;;
44068;SDS011;29738;51.234;5.484;2023-02-15T18:25:17;41.25;;;22.40;;
44068;SDS011;29738;51.234;5.484;2023-02-15T18:27:45;37.05;;;20.02;;
44068;SDS011;29738;51.234;5.484;2023-02-15T18:30:14;36.90;;;18.75;;